sensor_id;sensor_type;location;lat;lon;timestamp;temperature;humidity
51595;DHT22;37677;53.254;6.594;2023-03-24T00:00:08;12.00;76.30
51595;DHT22;37677;53.254;6.594;2023-03-24T00:02:38;11.70;81.40
51595;DHT22;37677;53.254;6.594;2023-03-24T00:05:10;11.70;79.10
51595;DHT22;37677;53.254;6.594;2023-03-24T00:07:36;11.90;76.70
51595;DHT22;37677;53.254;6.594;2023-03-24T00:10:08;11.80;77.50
51595;DHT22;37677;53.254;6.594;2023-03-24T00:12:36;11.80;77.50
51595;DHT22;37677;53.254;6.594;2023-03-24T00:15:08;12.10;78.40
51595;DHT22;37677;53.254;6.594;2023-03-24T00:17:34;11.80;76.20
51595;DHT22;37677;53.254;6.594;2023-03-24T00:20:10;11.70;77.80
51595;DHT22;37677;53.254;6.594;2023-03-24T00:22:44;11.70;82.50
51595;DHT22;37677;53.254;6.594;2023-03-24T00:25:19;11.70;83.50
51595;DHT22;37677;53.254;6.594;2023-03-24T00:27:47;11.90;81.60
51595;DHT22;37677;53.254;6.594;2023-03-24T00:30:15;11.80;83.60
51595;DHT22;37677;53.254;6.594;2023-03-24T00:32:41;12.30;87.80
51595;DHT22;37677;53.254;6.594;2023-03-24T00:35:09;11.70;86.10
51595;DHT22;37677;53.254;6.594;2023-03-24T00:37:39;12.30;84.20
51595;DHT22;37677;53.254;6.594;2023-03-24T00:40:16;11.70;82.60
51595;DHT22;37677;53.254;6.594;2023-03-24T00:42:43;11.70;83.20
51595;DHT22;37677;53.254;6.594;2023-03-24T00:45:12;11.70;82.10
51595;DHT22;37677;53.254;6.594;2023-03-24T00:47:38;11.70;83.40
51595;DHT22;37677;53.254;6.594;2023-03-24T00:50:06;12.00;83.10
51595;DHT22;37677;53.254;6.594;2023-03-24T00:52:33;11.70;88.10
51595;DHT22;37677;53.254;6.594;2023-03-24T00:55:00;11.90;86.60
51595;DHT22;37677;53.254;6.594;2023-03-24T00:57:30;11.70;84.30
51595;DHT22;37677;53.254;6.594;2023-03-24T01:00:03;11.70;90.30
51595;DHT22;37677;53.254;6.594;2023-03-24T01:02:41;11.90;87.00
51595;DHT22;37677;53.254;6.594;2023-03-24T01:05:08;12.50;88.80
51595;DHT22;37677;53.254;6.594;2023-03-24T01:07:34;11.70;88.70
51595;DHT22;37677;53.254;6.594;2023-03-24T01:09:59;11.60;87.10
51595;DHT22;37677;53.254;6.594;2023-03-24T01:12:29;11.40;86.20
51595;DHT22;37677;53.254;6.594;2023-03-24T01:14:56;11.60;86.60
51595;DHT22;37677;53.254;6.594;2023-03-24T01:17:22;11.70;91.30
51595;DHT22;37677;53.254;6.594;2023-03-24T01:19:50;11.60;90.70
51595;DHT22;37677;53.254;6.594;2023-03-24T01:22:16;12.40;90.00
51595;DHT22;37677;53.254;6.594;2023-03-24T01:24:42;11.60;91.40
51595;DHT22;37677;53.254;6.594;2023-03-24T01:27:08;11.60;90.90
51595;DHT22;37677;53.254;6.594;2023-03-24T01:29:34;12.00;91.30
51595;DHT22;37677;53.254;6.594;2023-03-24T01:32:00;11.70;90.70
51595;DHT22;37677;53.254;6.594;2023-03-24T01:34:26;12.20;92.10
51595;DHT22;37677;53.254;6.594;2023-03-24T01:36:51;11.60;91.20
51595;DHT22;37677;53.254;6.594;2023-03-24T01:39:17;11.60;90.70
51595;DHT22;37677;53.254;6.594;2023-03-24T01:41:43;12.00;92.20
51595;DHT22;37677;53.254;6.594;2023-03-24T01:44:35;11.60;92.50
51595;DHT22;37677;53.254;6.594;2023-03-24T01:47:02;11.60;94.20
51595;DHT22;37677;53.254;6.594;2023-03-24T01:49:43;11.60;93.00
51595;DHT22;37677;53.254;6.594;2023-03-24T01:52:31;11.60;93.10
51595;DHT22;37677;53.254;6.594;2023-03-24T01:55:07;11.60;96.00
51595;DHT22;37677;53.254;6.594;2023-03-24T01:57:42;11.60;95.10
51595;DHT22;37677;53.254;6.594;2023-03-24T02:00:11;11.60;94.10
51595;DHT22;37677;53.254;6.594;2023-03-24T02:02:40;11.60;95.80
51595;DHT22;37677;53.254;6.594;2023-03-24T02:05:08;11.70;96.10
51595;DHT22;37677;53.254;6.594;2023-03-24T02:08:02;12.30;96.50
51595;DHT22;37677;53.254;6.594;2023-03-24T02:10:31;11.60;96.90
51595;DHT22;37677;53.254;6.594;2023-03-24T02:12:57;11.90;96.30
51595;DHT22;37677;53.254;6.594;2023-03-24T02:15:24;11.60;96.80
51595;DHT22;37677;53.254;6.594;2023-03-24T02:18:05;12.00;96.80
51595;DHT22;37677;53.254;6.594;2023-03-24T02:32:45;12.10;97.80
51595;DHT22;37677;53.254;6.594;2023-03-24T02:35:37;11.60;98.80
51595;DHT22;37677;53.254;6.594;2023-03-24T02:52:10;11.70;99.90
51595;DHT22;37677;53.254;6.594;2023-03-24T02:54:57;11.70;99.90
51595;DHT22;37677;53.254;6.594;2023-03-24T03:00:12;11.70;99.90
51595;DHT22;37677;53.254;6.594;2023-03-24T03:02:45;11.60;99.90
51595;DHT22;37677;53.254;6.594;2023-03-24T03:05:21;11.60;99.90
51595;DHT22;37677;53.254;6.594;2023-03-24T03:07:49;11.70;99.90
51595;DHT22;37677;53.254;6.594;2023-03-24T03:10:24;11.70;99.90
51595;DHT22;37677;53.254;6.594;2023-03-24T03:12:54;11.70;99.90
51595;DHT22;37677;53.254;6.594;2023-03-24T03:15:24;11.90;99.90
51595;DHT22;37677;53.254;6.594;2023-03-24T03:18:13;11.70;99.90
51595;DHT22;37677;53.254;6.594;2023-03-24T03:20:46;11.90;99.90
51595;DHT22;37677;53.254;6.594;2023-03-24T03:23:22;11.80;99.90
51595;DHT22;37677;53.254;6.594;2023-03-24T03:25:52;11.80;99.90
51595;DHT22;37677;53.254;6.594;2023-03-24T03:28:22;11.80;99.90
51595;DHT22;37677;53.254;6.594;2023-03-24T03:30:56;11.70;99.90
51595;DHT22;37677;53.254;6.594;2023-03-24T03:33:29;11.80;99.90
51595;DHT22;37677;53.254;6.594;2023-03-24T03:41:21;12.30;99.90
51595;DHT22;37677;53.254;6.594;2023-03-24T03:43:47;11.70;99.90
51595;DHT22;37677;53.254;6.594;2023-03-24T03:46:15;11.50;99.90
51595;DHT22;37677;53.254;6.594;2023-03-24T03:48:42;11.50;96.30
51595;DHT22;37677;53.254;6.594;2023-03-24T03:51:08;11.40;96.90
51595;DHT22;37677;53.254;6.594;2023-03-24T03:53:52;11.40;92.50
51595;DHT22;37677;53.254;6.594;2023-03-24T03:56:26;11.20;91.70
51595;DHT22;37677;53.254;6.594;2023-03-24T03:58:52;11.20;90.10
51595;DHT22;37677;53.254;6.594;2023-03-24T04:01:29;11.10;89.30
51595;DHT22;37677;53.254;6.594;2023-03-24T04:04:10;11.10;90.00
51595;DHT22;37677;53.254;6.594;2023-03-24T04:07:16;10.80;79.30
51595;DHT22;37677;53.254;6.594;2023-03-24T04:15:25;11.00;77.80
51595;DHT22;37677;53.254;6.594;2023-03-24T04:20:27;12.20;73.90
51595;DHT22;37677;53.254;6.594;2023-03-24T04:26:00;10.80;71.30
51595;DHT22;37677;53.254;6.594;2023-03-24T04:28:49;10.70;68.20
51595;DHT22;37677;53.254;6.594;2023-03-24T04:31:48;10.60;66.80
51595;DHT22;37677;53.254;6.594;2023-03-24T04:34:20;10.50;56.10
51595;DHT22;37677;53.254;6.594;2023-03-24T04:39:30;10.40;56.10
51595;DHT22;37677;53.254;6.594;2023-03-24T04:42:02;11.30;62.10
51595;DHT22;37677;53.254;6.594;2023-03-24T04:44:29;11.30;59.80
51595;DHT22;37677;53.254;6.594;2023-03-24T04:49:24;10.20;56.00
51595;DHT22;37677;53.254;6.594;2023-03-24T04:51:50;10.10;58.60
51595;DHT22;37677;53.254;6.594;2023-03-24T04:54:18;10.30;65.00
51595;DHT22;37677;53.254;6.594;2023-03-24T04:59:15;9.90;63.50
51595;DHT22;37677;53.254;6.594;2023-03-24T05:01:42;10.30;60.50
51595;DHT22;37677;53.254;6.594;2023-03-24T05:04:14;10.00;65.40
51595;DHT22;37677;53.254;6.594;2023-03-24T05:06:40;10.10;69.80
51595;DHT22;37677;53.254;6.594;2023-03-24T05:09:06;10.70;70.40
51595;DHT22;37677;53.254;6.594;2023-03-24T05:11:32;8.80;64.60
51595;DHT22;37677;53.254;6.594;2023-03-24T05:13:58;10.30;66.00
51595;DHT22;37677;53.254;6.594;2023-03-24T05:16:24;9.60;69.90
51595;DHT22;37677;53.254;6.594;2023-03-24T05:18:50;9.70;71.60
51595;DHT22;37677;53.254;6.594;2023-03-24T05:21:15;10.20;71.20
51595;DHT22;37677;53.254;6.594;2023-03-24T05:23:41;10.50;70.70
51595;DHT22;37677;53.254;6.594;2023-03-24T05:26:07;10.10;71.20
51595;DHT22;37677;53.254;6.594;2023-03-24T05:28:33;9.50;72.50
51595;DHT22;37677;53.254;6.594;2023-03-24T05:30:58;9.60;71.90
51595;DHT22;37677;53.254;6.594;2023-03-24T05:33:25;9.50;72.70
51595;DHT22;37677;53.254;6.594;2023-03-24T05:35:51;10.60;73.50
51595;DHT22;37677;53.254;6.594;2023-03-24T05:38:17;9.50;72.80
51595;DHT22;37677;53.254;6.594;2023-03-24T05:40:44;10.20;76.00
51595;DHT22;37677;53.254;6.594;2023-03-24T05:43:09;9.80;79.60
51595;DHT22;37677;53.254;6.594;2023-03-24T05:45:37;9.70;78.30
51595;DHT22;37677;53.254;6.594;2023-03-24T05:48:03;9.80;76.90
51595;DHT22;37677;53.254;6.594;2023-03-24T05:50:29;9.80;75.30
51595;DHT22;37677;53.254;6.594;2023-03-24T05:53:02;9.90;74.40
51595;DHT22;37677;53.254;6.594;2023-03-24T05:55:28;9.80;74.20
51595;DHT22;37677;53.254;6.594;2023-03-24T05:57:54;10.00;73.70
51595;DHT22;37677;53.254;6.594;2023-03-24T06:00:20;9.90;71.30
51595;DHT22;37677;53.254;6.594;2023-03-24T06:02:48;10.00;70.10
51595;DHT22;37677;53.254;6.594;2023-03-24T06:05:14;10.20;70.90
51595;DHT22;37677;53.254;6.594;2023-03-24T06:07:40;10.10;68.50
51595;DHT22;37677;53.254;6.594;2023-03-24T06:10:10;10.00;64.10
51595;DHT22;37677;53.254;6.594;2023-03-24T06:12:37;10.10;65.70
51595;DHT22;37677;53.254;6.594;2023-03-24T06:15:03;9.90;64.90
51595;DHT22;37677;53.254;6.594;2023-03-24T06:17:29;9.90;59.60
51595;DHT22;37677;53.254;6.594;2023-03-24T06:19:57;10.00;59.70
51595;DHT22;37677;53.254;6.594;2023-03-24T06:22:36;10.00;59.70
51595;DHT22;37677;53.254;6.594;2023-03-24T06:25:03;10.10;56.70
51595;DHT22;37677;53.254;6.594;2023-03-24T06:27:29;9.90;57.80
51595;DHT22;37677;53.254;6.594;2023-03-24T06:29:58;10.10;58.20
51595;DHT22;37677;53.254;6.594;2023-03-24T06:32:26;10.20;55.90
51595;DHT22;37677;53.254;6.594;2023-03-24T06:34:52;10.00;58.10
51595;DHT22;37677;53.254;6.594;2023-03-24T06:37:20;10.10;59.80
51595;DHT22;37677;53.254;6.594;2023-03-24T06:39:46;10.00;61.40
51595;DHT22;37677;53.254;6.594;2023-03-24T06:42:12;10.20;52.00
51595;DHT22;37677;53.254;6.594;2023-03-24T06:44:39;10.30;48.80
51595;DHT22;37677;53.254;6.594;2023-03-24T06:47:04;10.40;52.70
51595;DHT22;37677;53.254;6.594;2023-03-24T06:49:30;10.20;49.50
51595;DHT22;37677;53.254;6.594;2023-03-24T06:51:56;10.20;45.70
51595;DHT22;37677;53.254;6.594;2023-03-24T06:54:22;10.60;47.60
51595;DHT22;37677;53.254;6.594;2023-03-24T06:56:47;10.40;45.60
51595;DHT22;37677;53.254;6.594;2023-03-24T06:59:13;10.20;49.30
51595;DHT22;37677;53.254;6.594;2023-03-24T07:01:42;10.30;47.40
51595;DHT22;37677;53.254;6.594;2023-03-24T07:04:11;10.20;45.60
51595;DHT22;37677;53.254;6.594;2023-03-24T07:06:37;10.20;45.00
51595;DHT22;37677;53.254;6.594;2023-03-24T07:09:03;10.40;47.90
51595;DHT22;37677;53.254;6.594;2023-03-24T07:11:29;10.40;46.30
51595;DHT22;37677;53.254;6.594;2023-03-24T07:13:55;10.40;42.90
51595;DHT22;37677;53.254;6.594;2023-03-24T07:16:21;10.30;46.90
51595;DHT22;37677;53.254;6.594;2023-03-24T07:18:47;10.30;47.20
51595;DHT22;37677;53.254;6.594;2023-03-24T07:21:13;10.20;40.70
51595;DHT22;37677;53.254;6.594;2023-03-24T07:23:40;10.20;45.20
51595;DHT22;37677;53.254;6.594;2023-03-24T07:26:05;10.30;45.30
51595;DHT22;37677;53.254;6.594;2023-03-24T07:28:31;10.50;44.60
51595;DHT22;37677;53.254;6.594;2023-03-24T07:31:04;10.30;43.10
51595;DHT22;37677;53.254;6.594;2023-03-24T07:33:31;10.20;39.40
51595;DHT22;37677;53.254;6.594;2023-03-24T07:35:57;10.20;40.70
51595;DHT22;37677;53.254;6.594;2023-03-24T07:38:25;10.30;39.10
51595;DHT22;37677;53.254;6.594;2023-03-24T07:40:51;11.40;48.90
51595;DHT22;37677;53.254;6.594;2023-03-24T07:43:17;11.60;9.50
51595;DHT22;37677;53.254;6.594;2023-03-24T07:45:44;11.20;1.00
51595;DHT22;37677;53.254;6.594;2023-03-24T07:48:10;11.00;8.60
51595;DHT22;37677;53.254;6.594;2023-03-24T07:50:36;10.90;13.90
51595;DHT22;37677;53.254;6.594;2023-03-24T07:53:01;10.80;23.60
51595;DHT22;37677;53.254;6.594;2023-03-24T07:55:27;10.90;27.90
51595;DHT22;37677;53.254;6.594;2023-03-24T07:57:53;10.90;22.80
51595;DHT22;37677;53.254;6.594;2023-03-24T08:00:19;11.10;27.40
51595;DHT22;37677;53.254;6.594;2023-03-24T08:02:48;10.80;23.10
51595;DHT22;37677;53.254;6.594;2023-03-24T08:05:14;10.90;19.70
51595;DHT22;37677;53.254;6.594;2023-03-24T08:07:44;11.00;19.00
51595;DHT22;37677;53.254;6.594;2023-03-24T08:10:13;11.00;15.10
51595;DHT22;37677;53.254;6.594;2023-03-24T08:12:40;11.00;9.00
51595;DHT22;37677;53.254;6.594;2023-03-24T08:15:06;11.00;9.30
51595;DHT22;37677;53.254;6.594;2023-03-24T08:17:33;11.00;6.50
51595;DHT22;37677;53.254;6.594;2023-03-24T08:19:58;11.00;3.10
51595;DHT22;37677;53.254;6.594;2023-03-24T08:22:25;11.00;1.00
51595;DHT22;37677;53.254;6.594;2023-03-24T08:24:51;11.10;1.40
51595;DHT22;37677;53.254;6.594;2023-03-24T08:27:17;11.50;1.00
51595;DHT22;37677;53.254;6.594;2023-03-24T08:29:42;11.60;1.00
51595;DHT22;37677;53.254;6.594;2023-03-24T08:32:08;11.70;1.00
51595;DHT22;37677;53.254;6.594;2023-03-24T08:34:34;11.90;1.00
51595;DHT22;37677;53.254;6.594;2023-03-24T08:37:02;11.90;1.00
51595;DHT22;37677;53.254;6.594;2023-03-24T08:39:27;11.70;1.00
51595;DHT22;37677;53.254;6.594;2023-03-24T08:41:57;11.80;1.00
51595;DHT22;37677;53.254;6.594;2023-03-24T08:44:22;12.40;1.00
51595;DHT22;37677;53.254;6.594;2023-03-24T08:46:48;12.50;1.00
51595;DHT22;37677;53.254;6.594;2023-03-24T08:49:15;12.30;1.00
51595;DHT22;37677;53.254;6.594;2023-03-24T08:51:42;12.50;1.00
51595;DHT22;37677;53.254;6.594;2023-03-24T08:54:08;12.60;1.00
51595;DHT22;37677;53.254;6.594;2023-03-24T08:56:37;12.40;1.00
51595;DHT22;37677;53.254;6.594;2023-03-24T08:59:04;13.20;1.00
51595;DHT22;37677;53.254;6.594;2023-03-24T09:01:32;12.90;99.90
51595;DHT22;37677;53.254;6.594;2023-03-24T09:04:00;13.00;1.00
51595;DHT22;37677;53.254;6.594;2023-03-24T09:06:26;14.30;1.00
51595;DHT22;37677;53.254;6.594;2023-03-24T09:08:53;15.30;99.90
51595;DHT22;37677;53.254;6.594;2023-03-24T09:11:20;14.90;99.90
51595;DHT22;37677;53.254;6.594;2023-03-24T09:13:47;14.00;1.00
51595;DHT22;37677;53.254;6.594;2023-03-24T09:16:13;13.90;99.90
51595;DHT22;37677;53.254;6.594;2023-03-24T09:21:05;14.10;99.90
51595;DHT22;37677;53.254;6.594;2023-03-24T09:23:32;14.20;99.90
51595;DHT22;37677;53.254;6.594;2023-03-24T09:25:58;13.80;99.90
51595;DHT22;37677;53.254;6.594;2023-03-24T09:28:24;13.80;99.90
51595;DHT22;37677;53.254;6.594;2023-03-24T09:30:54;13.50;99.90
51595;DHT22;37677;53.254;6.594;2023-03-24T09:33:20;13.40;1.00
51595;DHT22;37677;53.254;6.594;2023-03-24T09:35:53;13.40;1.00
51595;DHT22;37677;53.254;6.594;2023-03-24T09:43:26;15.30;1.00
51595;DHT22;37677;53.254;6.594;2023-03-24T09:45:58;15.60;99.90
51595;DHT22;37677;53.254;6.594;2023-03-24T09:51:06;15.10;99.90
51595;DHT22;37677;53.254;6.594;2023-03-24T09:53:49;15.10;99.90
51595;DHT22;37677;53.254;6.594;2023-03-24T09:56:18;14.50;1.00
51595;DHT22;37677;53.254;6.594;2023-03-24T09:58:52;15.10;1.00
51595;DHT22;37677;53.254;6.594;2023-03-24T10:01:19;15.50;99.90
51595;DHT22;37677;53.254;6.594;2023-03-24T10:03:45;16.10;90.80
51595;DHT22;37677;53.254;6.594;2023-03-24T10:06:19;16.40;1.00
51595;DHT22;37677;53.254;6.594;2023-03-24T10:09:13;16.00;99.90
51595;DHT22;37677;53.254;6.594;2023-03-24T10:22:45;16.80;99.90
51595;DHT22;37677;53.254;6.594;2023-03-24T10:25:34;17.00;1.00
51595;DHT22;37677;53.254;6.594;2023-03-24T10:30:41;15.90;1.00
51595;DHT22;37677;53.254;6.594;2023-03-24T10:33:11;15.20;87.80
51595;DHT22;37677;53.254;6.594;2023-03-24T10:35:59;15.50;69.00
51595;DHT22;37677;53.254;6.594;2023-03-24T10:38:26;15.40;96.50
51595;DHT22;37677;53.254;6.594;2023-03-24T10:43:19;16.00;99.90
51595;DHT22;37677;53.254;6.594;2023-03-24T10:45:48;16.20;99.90
51595;DHT22;37677;53.254;6.594;2023-03-24T10:50:59;15.10;99.90
51595;DHT22;37677;53.254;6.594;2023-03-24T10:53:24;14.10;99.90
51595;DHT22;37677;53.254;6.594;2023-03-24T10:55:50;13.60;1.00
51595;DHT22;37677;53.254;6.594;2023-03-24T11:00:54;14.90;99.90
51595;DHT22;37677;53.254;6.594;2023-03-24T11:03:27;16.10;1.00
51595;DHT22;37677;53.254;6.594;2023-03-24T11:06:01;16.40;1.00
51595;DHT22;37677;53.254;6.594;2023-03-24T11:08:35;16.90;99.90
51595;DHT22;37677;53.254;6.594;2023-03-24T11:11:13;16.70;99.90
51595;DHT22;37677;53.254;6.594;2023-03-24T11:13:39;15.60;99.90
51595;DHT22;37677;53.254;6.594;2023-03-24T11:16:12;15.60;99.90
51595;DHT22;37677;53.254;6.594;2023-03-24T11:19:20;15.30;99.90
51595;DHT22;37677;53.254;6.594;2023-03-24T11:21:47;15.70;1.00
51595;DHT22;37677;53.254;6.594;2023-03-24T11:24:16;15.70;99.90
51595;DHT22;37677;53.254;6.594;2023-03-24T11:27:00;15.20;99.90
51595;DHT22;37677;53.254;6.594;2023-03-24T11:29:28;14.60;1.00
51595;DHT22;37677;53.254;6.594;2023-03-24T11:32:02;14.40;1.00
51595;DHT22;37677;53.254;6.594;2023-03-24T11:34:38;14.30;1.00
51595;DHT22;37677;53.254;6.594;2023-03-24T11:37:15;14.30;99.90
51595;DHT22;37677;53.254;6.594;2023-03-24T11:39:41;14.60;99.90
51595;DHT22;37677;53.254;6.594;2023-03-24T11:52:56;14.60;99.90
51595;DHT22;37677;53.254;6.594;2023-03-24T11:55:35;14.50;99.90
51595;DHT22;37677;53.254;6.594;2023-03-24T12:01:24;14.10;99.90
51595;DHT22;37677;53.254;6.594;2023-03-24T12:04:06;14.20;99.90
51595;DHT22;37677;53.254;6.594;2023-03-24T12:09:51;14.00;99.90
51595;DHT22;37677;53.254;6.594;2023-03-24T12:15:16;14.10;99.90
51595;DHT22;37677;53.254;6.594;2023-03-24T12:18:04;14.10;99.90
51595;DHT22;37677;53.254;6.594;2023-03-24T12:20:43;14.60;99.90
51595;DHT22;37677;53.254;6.594;2023-03-24T12:23:30;14.70;1.00
51595;DHT22;37677;53.254;6.594;2023-03-24T12:29:17;14.90;99.90
51595;DHT22;37677;53.254;6.594;2023-03-24T12:32:12;14.60;99.90
51595;DHT22;37677;53.254;6.594;2023-03-24T12:37:37;14.40;99.90
51595;DHT22;37677;53.254;6.594;2023-03-24T12:45:39;14.10;99.90
51595;DHT22;37677;53.254;6.594;2023-03-24T12:50:51;14.40;1.00
51595;DHT22;37677;53.254;6.594;2023-03-24T12:53:26;14.40;1.00
51595;DHT22;37677;53.254;6.594;2023-03-24T12:56:23;14.20;62.90
51595;DHT22;37677;53.254;6.594;2023-03-24T12:59:13;14.20;99.90
51595;DHT22;37677;53.254;6.594;2023-03-24T13:01:45;14.40;1.00
51595;DHT22;37677;53.254;6.594;2023-03-24T13:04:30;14.00;1.00
51595;DHT22;37677;53.254;6.594;2023-03-24T13:07:12;14.10;1.00
51595;DHT22;37677;53.254;6.594;2023-03-24T13:10:04;14.10;46.00
51595;DHT22;37677;53.254;6.594;2023-03-24T13:15:16;14.10;99.90
51595;DHT22;37677;53.254;6.594;2023-03-24T13:18:00;14.20;99.90
51595;DHT22;37677;53.254;6.594;2023-03-24T13:22:55;14.10;9.90
51595;DHT22;37677;53.254;6.594;2023-03-24T13:25:30;13.90;67.70
51595;DHT22;37677;53.254;6.594;2023-03-24T13:27:59;13.80;1.00
51595;DHT22;37677;53.254;6.594;2023-03-24T13:30:38;14.00;1.00
51595;DHT22;37677;53.254;6.594;2023-03-24T13:33:12;13.80;1.00
51595;DHT22;37677;53.254;6.594;2023-03-24T13:38:51;13.80;99.90
51595;DHT22;37677;53.254;6.594;2023-03-24T13:41:23;13.70;99.90
51595;DHT22;37677;53.254;6.594;2023-03-24T13:44:07;13.80;99.90
51595;DHT22;37677;53.254;6.594;2023-03-24T13:46:40;13.80;99.90
51595;DHT22;37677;53.254;6.594;2023-03-24T13:49:11;13.60;77.10
51595;DHT22;37677;53.254;6.594;2023-03-24T13:51:43;13.80;99.90
51595;DHT22;37677;53.254;6.594;2023-03-24T13:54:18;14.00;99.90
51595;DHT22;37677;53.254;6.594;2023-03-24T13:56:59;13.80;25.50
51595;DHT22;37677;53.254;6.594;2023-03-24T13:59:37;13.90;14.30
51595;DHT22;37677;53.254;6.594;2023-03-24T14:05:06;14.00;93.60
51595;DHT22;37677;53.254;6.594;2023-03-24T14:07:43;14.00;99.90
51595;DHT22;37677;53.254;6.594;2023-03-24T14:15:18;14.10;1.00
51595;DHT22;37677;53.254;6.594;2023-03-24T14:17:47;14.10;19.10
51595;DHT22;37677;53.254;6.594;2023-03-24T14:20:34;14.00;33.70
51595;DHT22;37677;53.254;6.594;2023-03-24T14:23:03;14.20;99.90
51595;DHT22;37677;53.254;6.594;2023-03-24T14:25:31;13.90;99.90
51595;DHT22;37677;53.254;6.594;2023-03-24T14:31:02;14.10;1.00
51595;DHT22;37677;53.254;6.594;2023-03-24T14:33:34;13.80;99.90
51595;DHT22;37677;53.254;6.594;2023-03-24T14:36:02;13.80;1.00
51595;DHT22;37677;53.254;6.594;2023-03-24T14:38:39;13.60;99.90
51595;DHT22;37677;53.254;6.594;2023-03-24T14:41:14;13.70;99.90
51595;DHT22;37677;53.254;6.594;2023-03-24T14:51:40;13.80;1.00
51595;DHT22;37677;53.254;6.594;2023-03-24T14:59:47;13.60;99.90
51595;DHT22;37677;53.254;6.594;2023-03-24T15:02:36;13.60;99.90
51595;DHT22;37677;53.254;6.594;2023-03-24T15:05:14;13.50;1.00
51595;DHT22;37677;53.254;6.594;2023-03-24T15:07:42;13.40;99.90
51595;DHT22;37677;53.254;6.594;2023-03-24T15:10:18;13.50;1.00
51595;DHT22;37677;53.254;6.594;2023-03-24T15:12:48;13.70;99.90
51595;DHT22;37677;53.254;6.594;2023-03-24T15:15:20;13.70;45.30
51595;DHT22;37677;53.254;6.594;2023-03-24T15:17:48;13.60;99.90
51595;DHT22;37677;53.254;6.594;2023-03-24T15:20:33;13.60;1.00
51595;DHT22;37677;53.254;6.594;2023-03-24T15:23:05;13.50;99.90
51595;DHT22;37677;53.254;6.594;2023-03-24T15:25:31;13.30;1.00
51595;DHT22;37677;53.254;6.594;2023-03-24T15:27:57;13.30;99.90
51595;DHT22;37677;53.254;6.594;2023-03-24T15:30:23;13.20;99.90
51595;DHT22;37677;53.254;6.594;2023-03-24T15:32:50;13.30;99.90
51595;DHT22;37677;53.254;6.594;2023-03-24T15:35:18;13.00;1.00
51595;DHT22;37677;53.254;6.594;2023-03-24T15:37:52;13.10;99.90
51595;DHT22;37677;53.254;6.594;2023-03-24T15:42:52;13.00;99.90
51595;DHT22;37677;53.254;6.594;2023-03-24T15:47:54;13.40;1.00
51595;DHT22;37677;53.254;6.594;2023-03-24T15:50:37;13.10;1.00
51595;DHT22;37677;53.254;6.594;2023-03-24T15:53:04;13.10;1.00
51595;DHT22;37677;53.254;6.594;2023-03-24T15:55:33;13.10;99.90
51595;DHT22;37677;53.254;6.594;2023-03-24T15:58:00;13.00;1.00
51595;DHT22;37677;53.254;6.594;2023-03-24T16:00:35;13.20;17.40
51595;DHT22;37677;53.254;6.594;2023-03-24T16:03:03;13.00;99.90
51595;DHT22;37677;53.254;6.594;2023-03-24T16:05:30;12.90;99.90
51595;DHT22;37677;53.254;6.594;2023-03-24T16:08:05;13.10;1.00
51595;DHT22;37677;53.254;6.594;2023-03-24T16:10:37;12.70;99.90
51595;DHT22;37677;53.254;6.594;2023-03-24T16:13:18;12.70;99.90
51595;DHT22;37677;53.254;6.594;2023-03-24T16:18:19;12.60;99.90
51595;DHT22;37677;53.254;6.594;2023-03-24T16:20:47;12.70;1.00
51595;DHT22;37677;53.254;6.594;2023-03-24T16:23:13;12.50;64.60
51595;DHT22;37677;53.254;6.594;2023-03-24T16:25:38;12.60;1.00
51595;DHT22;37677;53.254;6.594;2023-03-24T16:28:04;12.70;99.90
51595;DHT22;37677;53.254;6.594;2023-03-24T16:30:37;12.60;99.90
51595;DHT22;37677;53.254;6.594;2023-03-24T16:33:05;12.60;99.90
51595;DHT22;37677;53.254;6.594;2023-03-24T16:35:32;12.40;99.90
51595;DHT22;37677;53.254;6.594;2023-03-24T16:37:57;12.50;1.00
51595;DHT22;37677;53.254;6.594;2023-03-24T16:42:55;12.40;1.00
51595;DHT22;37677;53.254;6.594;2023-03-24T16:45:21;12.40;99.90
51595;DHT22;37677;53.254;6.594;2023-03-24T16:47:46;12.20;99.90
51595;DHT22;37677;53.254;6.594;2023-03-24T16:50:36;12.20;1.00
51595;DHT22;37677;53.254;6.594;2023-03-24T16:53:03;12.20;1.00
51595;DHT22;37677;53.254;6.594;2023-03-24T16:55:30;12.00;1.00
51595;DHT22;37677;53.254;6.594;2023-03-24T16:57:56;12.10;35.60
51595;DHT22;37677;53.254;6.594;2023-03-24T17:02:52;12.10;99.90
51595;DHT22;37677;53.254;6.594;2023-03-24T17:05:26;12.10;99.90
51595;DHT22;37677;53.254;6.594;2023-03-24T17:07:55;12.10;99.90
51595;DHT22;37677;53.254;6.594;2023-03-24T17:10:22;12.00;99.90
51595;DHT22;37677;53.254;6.594;2023-03-24T17:12:49;12.00;99.90
51595;DHT22;37677;53.254;6.594;2023-03-24T17:15:27;11.80;99.90
51595;DHT22;37677;53.254;6.594;2023-03-24T17:20:20;11.80;99.90
51595;DHT22;37677;53.254;6.594;2023-03-24T17:22:48;11.90;99.90
51595;DHT22;37677;53.254;6.594;2023-03-24T17:27:42;11.70;99.90
51595;DHT22;37677;53.254;6.594;2023-03-24T17:32:36;11.90;99.90
51595;DHT22;37677;53.254;6.594;2023-03-24T17:35:03;11.50;99.90
51595;DHT22;37677;53.254;6.594;2023-03-24T17:37:29;11.50;99.90
51595;DHT22;37677;53.254;6.594;2023-03-24T17:39:55;11.40;99.90
51595;DHT22;37677;53.254;6.594;2023-03-24T17:42:23;11.50;99.90
51595;DHT22;37677;53.254;6.594;2023-03-24T17:44:50;11.50;99.90
51595;DHT22;37677;53.254;6.594;2023-03-24T17:47:16;11.40;99.90
51595;DHT22;37677;53.254;6.594;2023-03-24T17:49:42;11.30;99.90
51595;DHT22;37677;53.254;6.594;2023-03-24T17:52:08;11.40;99.90
51595;DHT22;37677;53.254;6.594;2023-03-24T17:54:33;11.20;99.90
51595;DHT22;37677;53.254;6.594;2023-03-24T17:56:59;11.30;99.90
51595;DHT22;37677;53.254;6.594;2023-03-24T17:59:25;11.20;99.90
51595;DHT22;37677;53.254;6.594;2023-03-24T18:01:51;11.20;99.90
51595;DHT22;37677;53.254;6.594;2023-03-24T18:04:16;11.20;99.90
51595;DHT22;37677;53.254;6.594;2023-03-24T18:06:42;11.00;99.90
51595;DHT22;37677;53.254;6.594;2023-03-24T18:09:08;11.10;99.90
51595;DHT22;37677;53.254;6.594;2023-03-24T18:11:34;11.50;99.90
51595;DHT22;37677;53.254;6.594;2023-03-24T18:14:00;11.00;99.90
51595;DHT22;37677;53.254;6.594;2023-03-24T18:16:26;11.10;99.90
51595;DHT22;37677;53.254;6.594;2023-03-24T18:18:56;11.10;99.90
51595;DHT22;37677;53.254;6.594;2023-03-24T18:21:22;11.00;99.90
51595;DHT22;37677;53.254;6.594;2023-03-24T18:23:48;11.10;99.90
51595;DHT22;37677;53.254;6.594;2023-03-24T18:26:15;10.90;99.90
51595;DHT22;37677;53.254;6.594;2023-03-24T18:28:42;10.90;99.90
51595;DHT22;37677;53.254;6.594;2023-03-24T18:31:14;10.80;99.90
51595;DHT22;37677;53.254;6.594;2023-03-24T18:33:40;11.00;99.90
51595;DHT22;37677;53.254;6.594;2023-03-24T18:36:08;11.40;99.90
51595;DHT22;37677;53.254;6.594;2023-03-24T18:38:38;10.90;99.90
51595;DHT22;37677;53.254;6.594;2023-03-24T18:41:08;10.80;99.90
51595;DHT22;37677;53.254;6.594;2023-03-24T18:43:42;10.80;99.90
51595;DHT22;37677;53.254;6.594;2023-03-24T18:46:12;10.80;99.90